Arctic - Eastern Arctic: Past 24 Hour Conditions

 

Taloyoak Airport

06:00 AM MDT 24 October 2014
This table is a summary of hourly weather conditions for the past 24 hours.
Date / Time
(MDT)
Wind(knots) Conditions Visibility(km) Pressure(kPa) Air tempC) Relative humidity(%) Dew pointC) Wind Chill
24 October 2014
6:00 NE 6 Ice Fog 0.6 102.7 -18 84 -20 -25
5:00 ENE 4 Fog 3 102.8 -18 84 -20 -24
4:00 SSE 2 Fog 5 102.8 -19 84 -21 -22
3:00 calm Mainly Clear 24 102.8 -21 81 -24 *
2:00 E 3 Clear 24 102.8 -21 82 -23 -25
1:00 E 5 Clear 24 102.9 -19 79 -21 -25
0:00 SE 2 Clear 24 102.9 -21 82 -23 -24
23 October 2014
23:00 SE 2 Clear 24 102.9 -21 76 -24 -24
22:00 ESE 2 Clear 24 102.9 -20 77 -23 -23
21:00 N 4 Clear 24 102.9 -19 78 -22 -25
20:00 E 3 Clear 24 102.9 -19 79 -22 -23
19:00 N 4 Clear 24 102.9 -18 79 -21 -24
18:00 N 10 Clear 24 102.9 -18 79 -21 -28
17:00 NW 10 Clear 24 102.9 -18 75 -21 -27
16:00 NW 9 Clear 24 102.9 -17 76 -20 -26
15:00 NW 14 Sunny 24 102.9 -16 77 -19 -27
14:00 W 6 Sunny 24 102.9 -15 78 -18 -22
13:00 NW 13 Sunny 24 102.9 -15 75 -19 -26
12:00 E 2 Sunny 24 102.8 -15 75 -18 -18
11:00 NW 8 Ice Crystals 24 102.8 -16 74 -19 -24
10:00 WNW 12 Ice Crystals 24 102.8 -16 78 -19 -25
9:00 NW 8 Ice Crystals 24 102.8 -15 78 -18 -23
8:00 NW 5 Mainly Sunny 24 102.8 -17 81 -19 -23
7:00 WNW 15 gust 21 Mainly Clear 24 102.7 -16 81 -19 -27
6:00 WNW 7 Ice Crystals 24 102.7 -18 80 -20 -25
 
Map of Arctic - Eastern Arctic marine weather areas Baker Lake Airport Chesterfield Inlet Airport Coral Harbour Airport Gjoa Haven Airport Kugaaruk Airport Rankin Inlet Airport Shepherd Bay Airport Whale Cove Airport Arctic Bay Brevoort Island Qikiqtarjuaq Airport Cape Dorset Airport Cape Dyer Cape Hooper Clyde Airport Grise Fiord Airport Hall Beach Airport Igloolik Airport Iqaluit Airport Longstaff Bluff Pangnirtung Airport Pond Inlet Airport Repulse Bay Airport Resolute Airport Resolution Island Rowley Island Airport Taloyoak Airport Wager Bay Akulivik Airport Ivujivik Airport Puvirnituq Airport Kangiqsujuaq Airport Kangirsuk Airport Quaqtaq Airport Tasiujaq Airport Cape Kakkiviak Cape Kiglapait Nain Airport Saglek Cape Mercy Kimmirut Airport Aupaluk Airport Salluit Airport Kangiqsualujjuaq Airport Fort Ross
Legend: buoyBuoy land stationLand Station